Flight Track Log - Related Links

Times and Time Zones

All times are in EDT time to prevent confusion due to time zone crossing. See the CHQ6336 flight status page for this flight to view local times or setup timezone preferences in your user account.

Time Position Orientation Groundspeed Altitude Reporting Facility
EDT Latitude Longitude Course Direction KTS MPH feet Rate Location/Type
Fri 10:13:52 PM 42.2033 -83.3722 273° West 159 183 1,300  Level Cleveland Center
Fri 10:15:17 PM 42.2028 -83.4731 270° West 229 264 3,600 1,974 Climbing Cleveland Center
Fri 10:16:00 PM 42.2337 -83.6924 273° West  Level FlightAware Approximate
Fri 10:16:24 PM 42.2108 -83.5744 276° West 230 265 6,300  Level Cleveland Center
Fri 10:17:00 PM 42.2380 -83.8084 273° West  Level FlightAware Approximate
Fri 10:17:25 PM 42.2189 -83.6617 277° West 255 293 8,300  Level Cleveland Center
Fri 10:18:00 PM 42.2422 -83.9244 273° West  Level FlightAware Approximate
Fri 10:19:00 PM 42.2463 -84.0405 273° West  Level FlightAware Approximate
Fri 10:19:00 PM 42.2392 -83.8402 273° West  Level FlightAware Approximate
Fri 10:21:54 PM 42.2453 -84.1944 270° West 334 384 10,000  Level Chicago Center
Fri 10:22:55 PM 42.2425 -84.3036 268° West 303 349 10,000  Level Chicago Center
Fri 10:23:57 PM 42.2361 -84.4061 265° West 300 345 10,000  Level Chicago Center
Fri 10:24:58 PM 42.2278 -84.5225 265° West 313 360 10,000  Level Chicago Center
Fri 10:25:59 PM 42.2286 -84.6464 271° West 324 373 10,000 -98 Level Chicago Center
Fri 10:26:00 PM 42.2500 -84.6530 270° West  Level FlightAware Approximate
Fri 10:27:00 PM 42.2500 -84.7691 270° West  Level FlightAware Approximate
Fri 10:27:01 PM 42.2292 -84.7556 270° West 301 346 9,800  Level Chicago Center
Fri 10:28:02 PM 42.2319 -84.8581 272° West 253 291 8,300 -1,475 Descending Chicago Center
Fri 10:29:03 PM 42.2511 -84.9444 287° West 255 293 6,800 -1,415 Descending Chicago Center
Fri 10:30:05 PM 42.2783 -85.0167 297° West 249 287 5,400 -1,415 Descending Chicago Center
Fri 10:31:06 PM 42.3117 -85.0956 300° West 243 280 3,900 -1,180 Descending Chicago Center
Fri 10:32:07 PM 42.3450 -85.1911 295° West 237 273 3,000 -443 Descending Chicago Center
Fri 10:33:08 PM 42.3675 -85.2678 292° West 223 257 3,000  Level Chicago Center
Fri 10:34:10 PM 42.3919 -85.3522 291° West 235 270 3,000  Level Chicago Center
Fri 10:35:11 PM 42.4150 -85.4358 291° West 237 273 3,000  Level Chicago Center
Fri 10:36:12 PM 42.4386 -85.5136 292° West 229 264 3,000  Level Chicago Center
Fri 10:37:13 PM 42.4428 -85.5864 274° West 231 266 3,000  Level Chicago Center
Fri 10:38:15 PM 42.3931 -85.5900 183° South 189 217 3,000 -98 Level Chicago Center
Fri 10:39:16 PM 42.3475 -85.5650 158° South 179 206 2,800 -344 Descending Chicago Center
Fri 10:40:17 PM 42.3117 -85.5603 174° South 138 159 2,300 -541 Descending Chicago Center
Fri 10:41:18 PM 42.2756 -85.5575 177° South 131 151 1,700 -585 Descending Chicago Center
Fri 10:42:20 PM 42.2325 -85.5519 175° South 130 150 1,100 -581 Descending Chicago Center

Login

Don't have an account? Register now (free) for customized features, flight alerts, and more!